sensor_id;sensor_type;location;lat;lon;timestamp;P1;durP1;ratioP1;P2;durP2;ratioP2
74624;SDS011;63131;52.298;8.056;2022-12-18T00:01:02;36.53;;;19.20;;
74624;SDS011;63131;52.298;8.056;2022-12-18T00:03:34;44.78;;;19.55;;
74624;SDS011;63131;52.298;8.056;2022-12-18T00:06:00;35.72;;;18.30;;
74624;SDS011;63131;52.298;8.056;2022-12-18T00:08:26;38.13;;;19.52;;
74624;SDS011;63131;52.298;8.056;2022-12-18T00:10:51;36.15;;;17.92;;
74624;SDS011;63131;52.298;8.056;2022-12-18T00:13:17;45.78;;;20.55;;
74624;SDS011;63131;52.298;8.056;2022-12-18T00:15:42;32.55;;;17.58;;
74624;SDS011;63131;52.298;8.056;2022-12-18T00:18:07;33.50;;;18.58;;
74624;SDS011;63131;52.298;8.056;2022-12-18T00:20:37;37.55;;;19.15;;
74624;SDS011;63131;52.298;8.056;2022-12-18T00:23:03;30.67;;;14.23;;
74624;SDS011;63131;52.298;8.056;2022-12-18T00:25:28;43.78;;;16.73;;
74624;SDS011;63131;52.298;8.056;2022-12-18T00:27:54;30.38;;;15.50;;
74624;SDS011;63131;52.298;8.056;2022-12-18T00:30:19;39.78;;;19.33;;
74624;SDS011;63131;52.298;8.056;2022-12-18T00:32:44;32.53;;;17.20;;
74624;SDS011;63131;52.298;8.056;2022-12-18T00:35:10;25.83;;;12.70;;
74624;SDS011;63131;52.298;8.056;2022-12-18T00:37:35;32.00;;;15.82;;
74624;SDS011;63131;52.298;8.056;2022-12-18T00:40:01;38.45;;;16.20;;
74624;SDS011;63131;52.298;8.056;2022-12-18T00:42:26;39.95;;;16.92;;
74624;SDS011;63131;52.298;8.056;2022-12-18T00:45:10;28.17;;;15.88;;
74624;SDS011;63131;52.298;8.056;2022-12-18T00:47:36;30.95;;;15.60;;
74624;SDS011;63131;52.298;8.056;2022-12-18T00:50:01;37.72;;;17.85;;
74624;SDS011;63131;52.298;8.056;2022-12-18T00:52:26;33.65;;;16.70;;
74624;SDS011;63131;52.298;8.056;2022-12-18T00:54:52;40.53;;;16.77;;
74624;SDS011;63131;52.298;8.056;2022-12-18T00:57:17;37.30;;;16.77;;
74624;SDS011;63131;52.298;8.056;2022-12-18T00:59:42;33.53;;;16.50;;
74624;SDS011;63131;52.298;8.056;2022-12-18T01:02:08;35.50;;;15.57;;
74624;SDS011;63131;52.298;8.056;2022-12-18T01:04:33;27.83;;;13.27;;
74624;SDS011;63131;52.298;8.056;2022-12-18T01:06:58;39.03;;;14.82;;
74624;SDS011;63131;52.298;8.056;2022-12-18T01:09:24;40.67;;;15.63;;
74624;SDS011;63131;52.298;8.056;2022-12-18T01:11:49;29.50;;;13.68;;
74624;SDS011;63131;52.298;8.056;2022-12-18T01:14:14;29.30;;;13.73;;
74624;SDS011;63131;52.298;8.056;2022-12-18T01:16:40;32.42;;;14.05;;
74624;SDS011;63131;52.298;8.056;2022-12-18T01:19:05;31.90;;;13.52;;
74624;SDS011;63131;52.298;8.056;2022-12-18T01:21:31;32.97;;;14.45;;
74624;SDS011;63131;52.298;8.056;2022-12-18T01:23:56;32.85;;;16.92;;
74624;SDS011;63131;52.298;8.056;2022-12-18T01:26:22;32.92;;;16.25;;
74624;SDS011;63131;52.298;8.056;2022-12-18T01:28:48;34.45;;;13.75;;
74624;SDS011;63131;52.298;8.056;2022-12-18T01:31:18;30.50;;;14.02;;
74624;SDS011;63131;52.298;8.056;2022-12-18T01:33:49;31.73;;;13.85;;
74624;SDS011;63131;52.298;8.056;2022-12-18T01:36:16;31.95;;;14.18;;
74624;SDS011;63131;52.298;8.056;2022-12-18T01:38:52;32.13;;;14.02;;
74624;SDS011;63131;52.298;8.056;2022-12-18T01:41:20;26.98;;;11.75;;
74624;SDS011;63131;52.298;8.056;2022-12-18T01:43:52;26.20;;;11.50;;
74624;SDS011;63131;52.298;8.056;2022-12-18T01:46:19;24.90;;;12.63;;
74624;SDS011;63131;52.298;8.056;2022-12-18T01:48:47;29.17;;;12.68;;
74624;SDS011;63131;52.298;8.056;2022-12-18T01:51:14;25.35;;;12.95;;
74624;SDS011;63131;52.298;8.056;2022-12-18T01:53:40;27.58;;;12.20;;
74624;SDS011;63131;52.298;8.056;2022-12-18T01:56:06;26.42;;;12.38;;
74624;SDS011;63131;52.298;8.056;2022-12-18T02:01:05;28.08;;;12.52;;
74624;SDS011;63131;52.298;8.056;2022-12-18T02:03:31;25.13;;;12.40;;
74624;SDS011;63131;52.298;8.056;2022-12-18T02:13:43;21.87;;;10.37;;
74624;SDS011;63131;52.298;8.056;2022-12-18T02:18:48;23.05;;;10.25;;
74624;SDS011;63131;52.298;8.056;2022-12-18T02:24:35;24.73;;;9.25;;
74624;SDS011;63131;52.298;8.056;2022-12-18T02:27:08;17.08;;;9.57;;
74624;SDS011;63131;52.298;8.056;2022-12-18T02:32:01;24.33;;;8.93;;
74624;SDS011;63131;52.298;8.056;2022-12-18T02:34:31;28.08;;;11.48;;
74624;SDS011;63131;52.298;8.056;2022-12-18T02:36:58;26.13;;;11.32;;
74624;SDS011;63131;52.298;8.056;2022-12-18T02:39:25;26.67;;;11.45;;
74624;SDS011;63131;52.298;8.056;2022-12-18T02:41:51;23.65;;;10.32;;
74624;SDS011;63131;52.298;8.056;2022-12-18T02:44:17;22.85;;;11.10;;
74624;SDS011;63131;52.298;8.056;2022-12-18T02:46:43;24.08;;;12.95;;
74624;SDS011;63131;52.298;8.056;2022-12-18T02:52:09;25.75;;;11.68;;
74624;SDS011;63131;52.298;8.056;2022-12-18T02:57:40;27.38;;;11.15;;
74624;SDS011;63131;52.298;8.056;2022-12-18T03:00:11;19.08;;;9.48;;
74624;SDS011;63131;52.298;8.056;2022-12-18T03:02:41;25.58;;;9.70;;
74624;SDS011;63131;52.298;8.056;2022-12-18T03:07:46;23.88;;;7.97;;
74624;SDS011;63131;52.298;8.056;2022-12-18T03:10:15;17.08;;;8.88;;
74624;SDS011;63131;52.298;8.056;2022-12-18T03:13:00;18.85;;;11.02;;
74624;SDS011;63131;52.298;8.056;2022-12-18T03:15:30;16.80;;;9.52;;
74624;SDS011;63131;52.298;8.056;2022-12-18T03:18:06;23.05;;;10.68;;
74624;SDS011;63131;52.298;8.056;2022-12-18T03:20:34;17.85;;;9.93;;
74624;SDS011;63131;52.298;8.056;2022-12-18T03:23:20;19.95;;;8.25;;
74624;SDS011;63131;52.298;8.056;2022-12-18T03:25:48;19.58;;;9.35;;
74624;SDS011;63131;52.298;8.056;2022-12-18T03:28:19;22.38;;;9.70;;
74624;SDS011;63131;52.298;8.056;2022-12-18T03:30:46;17.60;;;9.20;;
74624;SDS011;63131;52.298;8.056;2022-12-18T03:35:44;20.33;;;8.88;;
74624;SDS011;63131;52.298;8.056;2022-12-18T03:38:10;19.58;;;9.23;;
74624;SDS011;63131;52.298;8.056;2022-12-18T03:45:54;15.55;;;7.15;;
74624;SDS011;63131;52.298;8.056;2022-12-18T03:51:05;15.63;;;8.55;;
74624;SDS011;63131;52.298;8.056;2022-12-18T03:53:39;16.63;;;9.35;;
74624;SDS011;63131;52.298;8.056;2022-12-18T03:56:12;17.88;;;8.70;;
74624;SDS011;63131;52.298;8.056;2022-12-18T03:58:38;13.77;;;8.68;;
74624;SDS011;63131;52.298;8.056;2022-12-18T04:01:05;14.73;;;7.00;;
74624;SDS011;63131;52.298;8.056;2022-12-18T04:03:32;19.33;;;9.23;;
74624;SDS011;63131;52.298;8.056;2022-12-18T04:05:59;16.77;;;7.63;;
74624;SDS011;63131;52.298;8.056;2022-12-18T04:08:25;15.05;;;7.15;;
74624;SDS011;63131;52.298;8.056;2022-12-18T04:10:51;19.13;;;8.35;;
74624;SDS011;63131;52.298;8.056;2022-12-18T04:13:29;13.23;;;7.70;;
74624;SDS011;63131;52.298;8.056;2022-12-18T04:15:57;18.17;;;8.70;;
74624;SDS011;63131;52.298;8.056;2022-12-18T04:18:22;14.15;;;7.18;;
74624;SDS011;63131;52.298;8.056;2022-12-18T04:20:48;19.17;;;7.45;;
74624;SDS011;63131;52.298;8.056;2022-12-18T04:23:13;14.95;;;7.20;;
74624;SDS011;63131;52.298;8.056;2022-12-18T04:25:38;14.27;;;5.82;;
74624;SDS011;63131;52.298;8.056;2022-12-18T04:28:04;16.52;;;6.70;;
74624;SDS011;63131;52.298;8.056;2022-12-18T04:30:30;16.05;;;7.82;;
74624;SDS011;63131;52.298;8.056;2022-12-18T04:32:55;14.68;;;6.70;;
74624;SDS011;63131;52.298;8.056;2022-12-18T04:35:20;15.32;;;7.50;;
74624;SDS011;63131;52.298;8.056;2022-12-18T04:37:46;17.63;;;7.30;;
74624;SDS011;63131;52.298;8.056;2022-12-18T04:40:11;18.80;;;7.57;;
74624;SDS011;63131;52.298;8.056;2022-12-18T04:42:38;15.75;;;7.65;;
74624;SDS011;63131;52.298;8.056;2022-12-18T04:45:04;19.38;;;7.03;;
74624;SDS011;63131;52.298;8.056;2022-12-18T04:47:30;11.40;;;6.63;;
74624;SDS011;63131;52.298;8.056;2022-12-18T04:49:55;13.40;;;6.15;;
74624;SDS011;63131;52.298;8.056;2022-12-18T04:52:21;17.80;;;8.43;;
74624;SDS011;63131;52.298;8.056;2022-12-18T04:54:46;15.45;;;7.35;;
74624;SDS011;63131;52.298;8.056;2022-12-18T04:57:11;19.23;;;7.18;;
74624;SDS011;63131;52.298;8.056;2022-12-18T04:59:37;15.80;;;6.78;;
74624;SDS011;63131;52.298;8.056;2022-12-18T05:02:02;17.85;;;7.32;;
74624;SDS011;63131;52.298;8.056;2022-12-18T05:04:27;15.90;;;5.75;;
74624;SDS011;63131;52.298;8.056;2022-12-18T05:06:53;14.95;;;6.45;;
74624;SDS011;63131;52.298;8.056;2022-12-18T05:09:18;12.95;;;5.65;;
74624;SDS011;63131;52.298;8.056;2022-12-18T05:11:43;17.23;;;6.65;;
74624;SDS011;63131;52.298;8.056;2022-12-18T05:14:09;16.63;;;7.15;;
74624;SDS011;63131;52.298;8.056;2022-12-18T05:16:34;13.38;;;7.00;;
74624;SDS011;63131;52.298;8.056;2022-12-18T05:18:59;14.65;;;6.72;;
74624;SDS011;63131;52.298;8.056;2022-12-18T05:21:25;17.33;;;7.20;;
74624;SDS011;63131;52.298;8.056;2022-12-18T05:23:50;16.13;;;6.72;;
74624;SDS011;63131;52.298;8.056;2022-12-18T05:26:16;17.90;;;7.22;;
74624;SDS011;63131;52.298;8.056;2022-12-18T05:28:42;18.65;;;7.43;;
74624;SDS011;63131;52.298;8.056;2022-12-18T05:31:08;14.73;;;6.65;;
74624;SDS011;63131;52.298;8.056;2022-12-18T05:33:34;14.55;;;6.43;;
74624;SDS011;63131;52.298;8.056;2022-12-18T05:36:00;17.52;;;6.43;;
74624;SDS011;63131;52.298;8.056;2022-12-18T05:38:27;17.90;;;6.38;;
74624;SDS011;63131;52.298;8.056;2022-12-18T05:40:53;15.07;;;7.47;;
74624;SDS011;63131;52.298;8.056;2022-12-18T05:43:19;15.73;;;6.15;;
74624;SDS011;63131;52.298;8.056;2022-12-18T05:45:46;14.55;;;5.55;;
74624;SDS011;63131;52.298;8.056;2022-12-18T05:48:12;16.25;;;5.50;;
74624;SDS011;63131;52.298;8.056;2022-12-18T05:50:39;11.60;;;5.90;;
74624;SDS011;63131;52.298;8.056;2022-12-18T05:53:06;16.83;;;6.90;;
74624;SDS011;63131;52.298;8.056;2022-12-18T05:55:35;14.10;;;6.65;;
74624;SDS011;63131;52.298;8.056;2022-12-18T05:58:01;12.50;;;6.07;;
74624;SDS011;63131;52.298;8.056;2022-12-18T06:00:28;13.55;;;6.50;;
74624;SDS011;63131;52.298;8.056;2022-12-18T06:02:53;14.07;;;6.45;;
74624;SDS011;63131;52.298;8.056;2022-12-18T06:05:19;16.15;;;6.60;;
74624;SDS011;63131;52.298;8.056;2022-12-18T06:07:44;12.13;;;6.85;;
74624;SDS011;63131;52.298;8.056;2022-12-18T06:10:09;11.15;;;6.07;;
74624;SDS011;63131;52.298;8.056;2022-12-18T06:12:35;14.52;;;6.15;;
74624;SDS011;63131;52.298;8.056;2022-12-18T06:15:00;13.68;;;6.40;;
74624;SDS011;63131;52.298;8.056;2022-12-18T06:17:29;17.85;;;7.68;;
74624;SDS011;63131;52.298;8.056;2022-12-18T06:19:55;13.80;;;4.82;;
74624;SDS011;63131;52.298;8.056;2022-12-18T06:22:20;15.55;;;7.28;;
74624;SDS011;63131;52.298;8.056;2022-12-18T06:24:46;14.27;;;6.50;;
74624;SDS011;63131;52.298;8.056;2022-12-18T06:27:11;15.75;;;5.82;;
74624;SDS011;63131;52.298;8.056;2022-12-18T06:29:37;15.95;;;5.43;;
74624;SDS011;63131;52.298;8.056;2022-12-18T06:32:02;15.57;;;6.10;;
74624;SDS011;63131;52.298;8.056;2022-12-18T06:34:27;10.63;;;5.13;;
74624;SDS011;63131;52.298;8.056;2022-12-18T06:36:53;11.68;;;5.20;;
74624;SDS011;63131;52.298;8.056;2022-12-18T06:39:18;14.05;;;6.65;;
74624;SDS011;63131;52.298;8.056;2022-12-18T06:41:43;9.75;;;4.38;;
74624;SDS011;63131;52.298;8.056;2022-12-18T06:44:09;14.25;;;5.90;;
74624;SDS011;63131;52.298;8.056;2022-12-18T06:46:34;15.10;;;5.55;;
74624;SDS011;63131;52.298;8.056;2022-12-18T06:49:00;15.02;;;6.57;;
74624;SDS011;63131;52.298;8.056;2022-12-18T06:51:25;12.70;;;6.13;;
74624;SDS011;63131;52.298;8.056;2022-12-18T06:53:51;15.65;;;5.82;;
74624;SDS011;63131;52.298;8.056;2022-12-18T06:56:16;16.75;;;6.18;;
74624;SDS011;63131;52.298;8.056;2022-12-18T06:58:41;13.13;;;5.95;;
74624;SDS011;63131;52.298;8.056;2022-12-18T07:01:08;15.07;;;5.72;;
74624;SDS011;63131;52.298;8.056;2022-12-18T07:03:34;13.00;;;6.25;;
74624;SDS011;63131;52.298;8.056;2022-12-18T07:06:00;16.13;;;6.88;;
74624;SDS011;63131;52.298;8.056;2022-12-18T07:08:26;12.73;;;6.90;;
74624;SDS011;63131;52.298;8.056;2022-12-18T07:10:51;13.38;;;5.95;;
74624;SDS011;63131;52.298;8.056;2022-12-18T07:13:17;11.32;;;5.47;;
74624;SDS011;63131;52.298;8.056;2022-12-18T07:15:43;14.57;;;5.63;;
74624;SDS011;63131;52.298;8.056;2022-12-18T07:18:08;11.27;;;5.05;;
74624;SDS011;63131;52.298;8.056;2022-12-18T07:20:34;11.65;;;5.00;;
74624;SDS011;63131;52.298;8.056;2022-12-18T07:23:01;11.80;;;5.00;;
74624;SDS011;63131;52.298;8.056;2022-12-18T07:25:27;15.38;;;5.15;;
74624;SDS011;63131;52.298;8.056;2022-12-18T07:27:52;13.40;;;6.03;;
74624;SDS011;63131;52.298;8.056;2022-12-18T07:30:18;13.02;;;5.05;;
74624;SDS011;63131;52.298;8.056;2022-12-18T07:32:43;11.75;;;6.25;;
74624;SDS011;63131;52.298;8.056;2022-12-18T07:35:08;10.45;;;4.63;;
74624;SDS011;63131;52.298;8.056;2022-12-18T07:37:34;18.05;;;7.40;;
74624;SDS011;63131;52.298;8.056;2022-12-18T07:39:59;13.27;;;6.15;;
74624;SDS011;63131;52.298;8.056;2022-12-18T07:42:24;10.40;;;5.22;;
74624;SDS011;63131;52.298;8.056;2022-12-18T07:44:56;11.05;;;5.65;;
74624;SDS011;63131;52.298;8.056;2022-12-18T07:47:21;12.90;;;5.82;;
74624;SDS011;63131;52.298;8.056;2022-12-18T07:49:47;10.50;;;5.50;;
74624;SDS011;63131;52.298;8.056;2022-12-18T07:52:12;11.80;;;4.88;;
74624;SDS011;63131;52.298;8.056;2022-12-18T07:54:38;13.88;;;5.97;;
74624;SDS011;63131;52.298;8.056;2022-12-18T07:57:03;14.43;;;5.35;;
74624;SDS011;63131;52.298;8.056;2022-12-18T07:59:29;16.17;;;6.78;;
74624;SDS011;63131;52.298;8.056;2022-12-18T08:01:54;14.60;;;7.13;;
74624;SDS011;63131;52.298;8.056;2022-12-18T08:04:19;17.05;;;6.00;;
74624;SDS011;63131;52.298;8.056;2022-12-18T08:06:45;14.95;;;6.28;;
74624;SDS011;63131;52.298;8.056;2022-12-18T08:09:11;14.35;;;6.47;;
74624;SDS011;63131;52.298;8.056;2022-12-18T08:11:37;15.82;;;8.25;;
74624;SDS011;63131;52.298;8.056;2022-12-18T08:14:02;15.05;;;6.47;;
74624;SDS011;63131;52.298;8.056;2022-12-18T08:16:27;11.35;;;4.95;;
74624;SDS011;63131;52.298;8.056;2022-12-18T08:18:53;14.18;;;5.25;;
74624;SDS011;63131;52.298;8.056;2022-12-18T08:21:20;23.17;;;8.80;;
74624;SDS011;63131;52.298;8.056;2022-12-18T08:23:48;13.40;;;7.05;;
74624;SDS011;63131;52.298;8.056;2022-12-18T08:26:14;14.32;;;6.38;;
74624;SDS011;63131;52.298;8.056;2022-12-18T08:28:40;14.07;;;6.15;;
74624;SDS011;63131;52.298;8.056;2022-12-18T08:31:06;13.07;;;5.68;;
74624;SDS011;63131;52.298;8.056;2022-12-18T08:33:32;14.20;;;5.38;;
74624;SDS011;63131;52.298;8.056;2022-12-18T08:36:00;16.13;;;5.53;;
74624;SDS011;63131;52.298;8.056;2022-12-18T08:38:26;11.05;;;5.05;;
74624;SDS011;63131;52.298;8.056;2022-12-18T08:41:02;16.15;;;6.45;;
74624;SDS011;63131;52.298;8.056;2022-12-18T08:43:29;14.82;;;6.45;;
74624;SDS011;63131;52.298;8.056;2022-12-18T08:46:12;11.95;;;5.90;;
74624;SDS011;63131;52.298;8.056;2022-12-18T08:48:38;18.23;;;6.78;;
74624;SDS011;63131;52.298;8.056;2022-12-18T08:51:03;15.32;;;6.57;;
74624;SDS011;63131;52.298;8.056;2022-12-18T08:53:29;19.02;;;7.03;;
74624;SDS011;63131;52.298;8.056;2022-12-18T08:55:56;19.50;;;7.47;;
74624;SDS011;63131;52.298;8.056;2022-12-18T08:58:21;17.10;;;6.68;;
74624;SDS011;63131;52.298;8.056;2022-12-18T09:00:46;14.80;;;8.27;;
74624;SDS011;63131;52.298;8.056;2022-12-18T09:03:16;12.73;;;5.40;;
74624;SDS011;63131;52.298;8.056;2022-12-18T09:05:42;15.20;;;7.22;;
74624;SDS011;63131;52.298;8.056;2022-12-18T09:08:08;14.75;;;5.85;;
74624;SDS011;63131;52.298;8.056;2022-12-18T09:10:33;13.93;;;6.45;;
74624;SDS011;63131;52.298;8.056;2022-12-18T09:12:59;16.70;;;6.25;;
74624;SDS011;63131;52.298;8.056;2022-12-18T09:15:24;12.65;;;6.15;;
74624;SDS011;63131;52.298;8.056;2022-12-18T09:17:50;22.08;;;8.18;;
74624;SDS011;63131;52.298;8.056;2022-12-18T09:20:17;16.48;;;6.32;;
74624;SDS011;63131;52.298;8.056;2022-12-18T09:22:43;13.25;;;6.10;;
74624;SDS011;63131;52.298;8.056;2022-12-18T09:25:08;12.15;;;5.30;;
74624;SDS011;63131;52.298;8.056;2022-12-18T09:27:34;17.75;;;6.47;;
74624;SDS011;63131;52.298;8.056;2022-12-18T09:29:59;15.25;;;7.18;;
74624;SDS011;63131;52.298;8.056;2022-12-18T09:32:25;15.40;;;6.93;;
74624;SDS011;63131;52.298;8.056;2022-12-18T09:34:50;13.77;;;6.10;;
74624;SDS011;63131;52.298;8.056;2022-12-18T09:37:16;19.98;;;7.50;;
74624;SDS011;63131;52.298;8.056;2022-12-18T09:39:41;13.35;;;5.47;;
74624;SDS011;63131;52.298;8.056;2022-12-18T09:42:09;18.98;;;8.82;;
74624;SDS011;63131;52.298;8.056;2022-12-18T09:44:43;12.75;;;6.22;;
74624;SDS011;63131;52.298;8.056;2022-12-18T09:50:19;14.95;;;6.35;;
74624;SDS011;63131;52.298;8.056;2022-12-18T09:52:51;14.98;;;6.38;;
74624;SDS011;63131;52.298;8.056;2022-12-18T09:58:00;14.98;;;6.45;;
74624;SDS011;63131;52.298;8.056;2022-12-18T10:00:29;17.30;;;8.02;;
74624;SDS011;63131;52.298;8.056;2022-12-18T10:02:59;17.95;;;7.65;;
74624;SDS011;63131;52.298;8.056;2022-12-18T10:05:39;16.30;;;7.07;;
74624;SDS011;63131;52.298;8.056;2022-12-18T10:10:57;23.45;;;8.63;;
74624;SDS011;63131;52.298;8.056;2022-12-18T10:16:13;20.98;;;8.30;;
74624;SDS011;63131;52.298;8.056;2022-12-18T10:24:50;19.75;;;7.82;;
74624;SDS011;63131;52.298;8.056;2022-12-18T10:27:21;18.83;;;8.18;;
74624;SDS011;63131;52.298;8.056;2022-12-18T10:29:48;21.83;;;8.55;;
74624;SDS011;63131;52.298;8.056;2022-12-18T10:32:15;21.90;;;10.52;;
74624;SDS011;63131;52.298;8.056;2022-12-18T10:34:45;20.92;;;10.82;;
74624;SDS011;63131;52.298;8.056;2022-12-18T10:37:18;24.30;;;10.70;;
74624;SDS011;63131;52.298;8.056;2022-12-18T10:40:11;19.38;;;8.52;;
74624;SDS011;63131;52.298;8.056;2022-12-18T10:42:38;18.67;;;9.23;;
74624;SDS011;63131;52.298;8.056;2022-12-18T10:45:08;21.45;;;10.02;;
74624;SDS011;63131;52.298;8.056;2022-12-18T10:47:36;21.75;;;8.65;;
74624;SDS011;63131;52.298;8.056;2022-12-18T10:50:01;16.38;;;8.45;;
74624;SDS011;63131;52.298;8.056;2022-12-18T10:52:27;19.13;;;8.60;;
74624;SDS011;63131;52.298;8.056;2022-12-18T10:55:01;15.85;;;8.07;;
74624;SDS011;63131;52.298;8.056;2022-12-18T10:57:35;15.00;;;6.32;;
74624;SDS011;63131;52.298;8.056;2022-12-18T11:00:21;14.50;;;7.65;;
74624;SDS011;63131;52.298;8.056;2022-12-18T11:02:49;21.05;;;9.20;;
74624;SDS011;63131;52.298;8.056;2022-12-18T11:05:28;17.67;;;7.80;;
74624;SDS011;63131;52.298;8.056;2022-12-18T11:07:55;18.23;;;7.20;;
74624;SDS011;63131;52.298;8.056;2022-12-18T11:10:22;20.88;;;8.65;;
74624;SDS011;63131;52.298;8.056;2022-12-18T11:12:50;13.15;;;7.57;;
74624;SDS011;63131;52.298;8.056;2022-12-18T11:15:18;19.95;;;7.93;;
74624;SDS011;63131;52.298;8.056;2022-12-18T11:17:46;14.77;;;7.28;;
74624;SDS011;63131;52.298;8.056;2022-12-18T11:23:05;15.55;;;6.95;;
74624;SDS011;63131;52.298;8.056;2022-12-18T11:25:36;14.38;;;7.18;;
74624;SDS011;63131;52.298;8.056;2022-12-18T11:28:03;16.30;;;6.60;;
74624;SDS011;63131;52.298;8.056;2022-12-18T11:30:34;13.55;;;7.25;;
74624;SDS011;63131;52.298;8.056;2022-12-18T11:33:05;13.75;;;5.90;;
74624;SDS011;63131;52.298;8.056;2022-12-18T11:35:34;15.10;;;6.18;;
74624;SDS011;63131;52.298;8.056;2022-12-18T11:38:37;14.63;;;6.20;;
74624;SDS011;63131;52.298;8.056;2022-12-18T11:40:58;13.82;;;6.68;;
74624;SDS011;63131;52.298;8.056;2022-12-18T11:43:29;17.20;;;7.03;;
74624;SDS011;63131;52.298;8.056;2022-12-18T11:46:00;14.35;;;6.53;;
74624;SDS011;63131;52.298;8.056;2022-12-18T11:53:39;16.95;;;7.80;;
74624;SDS011;63131;52.298;8.056;2022-12-18T12:04:16;13.20;;;6.70;;
74624;SDS011;63131;52.298;8.056;2022-12-18T12:07:21;15.27;;;6.82;;
74624;SDS011;63131;52.298;8.056;2022-12-18T12:09:55;13.93;;;6.75;;
74624;SDS011;63131;52.298;8.056;2022-12-18T12:12:50;13.80;;;6.45;;
74624;SDS011;63131;52.298;8.056;2022-12-18T12:27:04;14.60;;;6.78;;
74624;SDS011;63131;52.298;8.056;2022-12-18T12:32:13;17.20;;;7.47;;
74624;SDS011;63131;52.298;8.056;2022-12-18T12:40:29;12.27;;;5.35;;
74624;SDS011;63131;52.298;8.056;2022-12-18T12:43:19;17.15;;;6.88;;
74624;SDS011;63131;52.298;8.056;2022-12-18T12:46:05;12.75;;;5.85;;
74624;SDS011;63131;52.298;8.056;2022-12-18T12:51:20;13.52;;;5.55;;
74624;SDS011;63131;52.298;8.056;2022-12-18T12:53:48;13.38;;;5.88;;
74624;SDS011;63131;52.298;8.056;2022-12-18T12:56:15;13.73;;;5.43;;
74624;SDS011;63131;52.298;8.056;2022-12-18T12:58:53;12.10;;;4.63;;
74624;SDS011;63131;52.298;8.056;2022-12-18T13:04:10;11.40;;;5.88;;
74624;SDS011;63131;52.298;8.056;2022-12-18T13:09:19;10.15;;;4.82;;
74624;SDS011;63131;52.298;8.056;2022-12-18T13:14:37;10.68;;;4.55;;
74624;SDS011;63131;52.298;8.056;2022-12-18T13:17:16;14.73;;;6.07;;
74624;SDS011;63131;52.298;8.056;2022-12-18T13:19:48;11.25;;;5.32;;
74624;SDS011;63131;52.298;8.056;2022-12-18T13:22:24;13.55;;;5.65;;
74624;SDS011;63131;52.298;8.056;2022-12-18T13:24:54;14.35;;;4.68;;
74624;SDS011;63131;52.298;8.056;2022-12-18T13:35:39;12.85;;;4.38;;
74624;SDS011;63131;52.298;8.056;2022-12-18T13:41:43;11.60;;;4.90;;
74624;SDS011;63131;52.298;8.056;2022-12-18T13:43:54;10.68;;;4.60;;
74624;SDS011;63131;52.298;8.056;2022-12-18T13:51:25;10.65;;;4.55;;
74624;SDS011;63131;52.298;8.056;2022-12-18T13:53:53;14.15;;;5.32;;
74624;SDS011;63131;52.298;8.056;2022-12-18T13:56:25;12.63;;;5.65;;
74624;SDS011;63131;52.298;8.056;2022-12-18T14:04:44;13.45;;;5.63;;
74624;SDS011;63131;52.298;8.056;2022-12-18T14:07:12;13.55;;;5.93;;
74624;SDS011;63131;52.298;8.056;2022-12-18T14:09:46;12.55;;;5.18;;
74624;SDS011;63131;52.298;8.056;2022-12-18T14:12:14;13.75;;;4.78;;
74624;SDS011;63131;52.298;8.056;2022-12-18T14:15:01;13.88;;;5.75;;
74624;SDS011;63131;52.298;8.056;2022-12-18T14:17:28;11.95;;;4.78;;
74624;SDS011;63131;52.298;8.056;2022-12-18T14:19:53;17.85;;;5.22;;
74624;SDS011;63131;52.298;8.056;2022-12-18T14:22:20;12.07;;;4.78;;
74624;SDS011;63131;52.298;8.056;2022-12-18T14:24:47;12.43;;;5.78;;
74624;SDS011;63131;52.298;8.056;2022-12-18T14:27:20;14.60;;;5.88;;
74624;SDS011;63131;52.298;8.056;2022-12-18T14:29:47;12.23;;;5.18;;
74624;SDS011;63131;52.298;8.056;2022-12-18T14:32:13;12.45;;;5.13;;
74624;SDS011;63131;52.298;8.056;2022-12-18T14:34:49;9.38;;;4.50;;
74624;SDS011;63131;52.298;8.056;2022-12-18T14:37:17;10.93;;;5.07;;
74624;SDS011;63131;52.298;8.056;2022-12-18T14:39:55;10.82;;;4.93;;
74624;SDS011;63131;52.298;8.056;2022-12-18T14:42:21;13.00;;;5.57;;
74624;SDS011;63131;52.298;8.056;2022-12-18T14:44:47;13.70;;;5.68;;
74624;SDS011;63131;52.298;8.056;2022-12-18T14:47:13;13.00;;;5.88;;
74624;SDS011;63131;52.298;8.056;2022-12-18T14:49:40;10.27;;;4.13;;
74624;SDS011;63131;52.298;8.056;2022-12-18T14:52:13;10.38;;;4.15;;
74624;SDS011;63131;52.298;8.056;2022-12-18T14:54:47;12.07;;;4.82;;
74624;SDS011;63131;52.298;8.056;2022-12-18T14:57:23;11.48;;;5.22;;
74624;SDS011;63131;52.298;8.056;2022-12-18T14:59:50;14.43;;;5.15;;
74624;SDS011;63131;52.298;8.056;2022-12-18T15:02:24;11.73;;;4.57;;
74624;SDS011;63131;52.298;8.056;2022-12-18T15:07:41;9.23;;;4.05;;
74624;SDS011;63131;52.298;8.056;2022-12-18T15:12:39;12.88;;;4.45;;
74624;SDS011;63131;52.298;8.056;2022-12-18T15:20:27;9.50;;;4.68;;
74624;SDS011;63131;52.298;8.056;2022-12-18T15:22:56;11.82;;;4.82;;
74624;SDS011;63131;52.298;8.056;2022-12-18T15:27:57;12.20;;;5.00;;
74624;SDS011;63131;52.298;8.056;2022-12-18T15:30:23;11.05;;;4.30;;
74624;SDS011;63131;52.298;8.056;2022-12-18T15:32:49;12.43;;;5.05;;
74624;SDS011;63131;52.298;8.056;2022-12-18T15:35:17;10.30;;;4.35;;
74624;SDS011;63131;52.298;8.056;2022-12-18T15:37:49;12.25;;;5.03;;
74624;SDS011;63131;52.298;8.056;2022-12-18T15:40:17;12.55;;;5.03;;
74624;SDS011;63131;52.298;8.056;2022-12-18T15:42:44;11.00;;;4.07;;
74624;SDS011;63131;52.298;8.056;2022-12-18T15:45:28;11.57;;;4.43;;
74624;SDS011;63131;52.298;8.056;2022-12-18T15:47:53;12.25;;;4.88;;
74624;SDS011;63131;52.298;8.056;2022-12-18T15:50:19;12.73;;;5.97;;
74624;SDS011;63131;52.298;8.056;2022-12-18T15:52:45;12.13;;;5.28;;
74624;SDS011;63131;52.298;8.056;2022-12-18T15:55:15;13.85;;;5.57;;
74624;SDS011;63131;52.298;8.056;2022-12-18T15:58:01;12.00;;;5.13;;
74624;SDS011;63131;52.298;8.056;2022-12-18T16:00:27;13.43;;;5.30;;
74624;SDS011;63131;52.298;8.056;2022-12-18T16:02:52;12.88;;;5.57;;
74624;SDS011;63131;52.298;8.056;2022-12-18T16:05:18;14.23;;;5.72;;
74624;SDS011;63131;52.298;8.056;2022-12-18T16:07:45;11.55;;;5.05;;
74624;SDS011;63131;52.298;8.056;2022-12-18T16:10:11;11.57;;;4.68;;
74624;SDS011;63131;52.298;8.056;2022-12-18T16:12:37;9.65;;;3.65;;
74624;SDS011;63131;52.298;8.056;2022-12-18T16:15:03;10.15;;;3.88;;
74624;SDS011;63131;52.298;8.056;2022-12-18T16:17:29;9.00;;;4.07;;
74624;SDS011;63131;52.298;8.056;2022-12-18T16:19:54;9.27;;;3.88;;
74624;SDS011;63131;52.298;8.056;2022-12-18T16:22:21;10.98;;;4.18;;
74624;SDS011;63131;52.298;8.056;2022-12-18T16:24:48;11.70;;;4.15;;
74624;SDS011;63131;52.298;8.056;2022-12-18T16:27:14;11.05;;;4.20;;
74624;SDS011;63131;52.298;8.056;2022-12-18T16:29:39;10.02;;;4.00;;
74624;SDS011;63131;52.298;8.056;2022-12-18T16:32:04;12.43;;;4.18;;
74624;SDS011;63131;52.298;8.056;2022-12-18T16:34:31;12.57;;;6.22;;
74624;SDS011;63131;52.298;8.056;2022-12-18T16:37:03;10.93;;;4.10;;
74624;SDS011;63131;52.298;8.056;2022-12-18T16:39:29;10.00;;;4.30;;
74624;SDS011;63131;52.298;8.056;2022-12-18T16:41:58;12.18;;;4.00;;
74624;SDS011;63131;52.298;8.056;2022-12-18T16:44:24;10.95;;;3.90;;
74624;SDS011;63131;52.298;8.056;2022-12-18T16:46:49;11.82;;;4.25;;
74624;SDS011;63131;52.298;8.056;2022-12-18T16:49:15;11.68;;;4.43;;
74624;SDS011;63131;52.298;8.056;2022-12-18T16:51:41;12.57;;;4.60;;
74624;SDS011;63131;52.298;8.056;2022-12-18T16:54:07;9.40;;;3.88;;
74624;SDS011;63131;52.298;8.056;2022-12-18T16:56:33;11.07;;;4.25;;